sensor_id;sensor_type;location;lat;lon;timestamp;temperature;humidity
33994;DHT22;20673;48.980;8.138;2023-07-30T00:02:07;18.60;99.90
33994;DHT22;20673;48.980;8.138;2023-07-30T00:04:33;18.50;99.90
33994;DHT22;20673;48.980;8.138;2023-07-30T00:06:59;18.50;99.90
33994;DHT22;20673;48.980;8.138;2023-07-30T00:09:25;18.50;99.90
33994;DHT22;20673;48.980;8.138;2023-07-30T00:11:51;18.50;99.90
33994;DHT22;20673;48.980;8.138;2023-07-30T00:14:17;18.40;99.90
33994;DHT22;20673;48.980;8.138;2023-07-30T00:16:43;18.40;99.90
33994;DHT22;20673;48.980;8.138;2023-07-30T00:19:10;18.30;99.90
33994;DHT22;20673;48.980;8.138;2023-07-30T00:21:36;18.40;99.90
33994;DHT22;20673;48.980;8.138;2023-07-30T00:24:02;18.40;99.90
33994;DHT22;20673;48.980;8.138;2023-07-30T00:26:29;18.40;99.90
33994;DHT22;20673;48.980;8.138;2023-07-30T00:28:55;18.50;99.90
33994;DHT22;20673;48.980;8.138;2023-07-30T00:31:21;18.60;99.90
33994;DHT22;20673;48.980;8.138;2023-07-30T00:33:47;18.60;99.90
33994;DHT22;20673;48.980;8.138;2023-07-30T00:36:13;18.50;99.90
33994;DHT22;20673;48.980;8.138;2023-07-30T00:38:39;18.50;99.90
33994;DHT22;20673;48.980;8.138;2023-07-30T00:41:05;18.60;99.90
33994;DHT22;20673;48.980;8.138;2023-07-30T00:43:31;18.50;99.90
33994;DHT22;20673;48.980;8.138;2023-07-30T00:45:58;18.60;99.90
33994;DHT22;20673;48.980;8.138;2023-07-30T00:48:24;18.60;99.90
33994;DHT22;20673;48.980;8.138;2023-07-30T00:50:50;18.50;99.90
33994;DHT22;20673;48.980;8.138;2023-07-30T00:53:18;18.60;99.90
33994;DHT22;20673;48.980;8.138;2023-07-30T00:55:47;18.60;99.90
33994;DHT22;20673;48.980;8.138;2023-07-30T00:58:13;18.60;99.90
33994;DHT22;20673;48.980;8.138;2023-07-30T01:00:40;18.60;99.90
33994;DHT22;20673;48.980;8.138;2023-07-30T01:03:07;18.60;99.90
33994;DHT22;20673;48.980;8.138;2023-07-30T01:05:34;18.60;99.90
33994;DHT22;20673;48.980;8.138;2023-07-30T01:08:00;18.60;99.90
33994;DHT22;20673;48.980;8.138;2023-07-30T01:10:26;18.60;99.90
33994;DHT22;20673;48.980;8.138;2023-07-30T01:12:56;18.60;99.90
33994;DHT22;20673;48.980;8.138;2023-07-30T01:15:22;18.60;99.90
33994;DHT22;20673;48.980;8.138;2023-07-30T01:17:49;18.60;99.90
33994;DHT22;20673;48.980;8.138;2023-07-30T01:20:15;18.60;99.90
33994;DHT22;20673;48.980;8.138;2023-07-30T01:22:41;18.60;99.90
33994;DHT22;20673;48.980;8.138;2023-07-30T01:25:08;18.50;99.90
33994;DHT22;20673;48.980;8.138;2023-07-30T01:27:39;18.60;99.90
33994;DHT22;20673;48.980;8.138;2023-07-30T01:30:29;18.50;99.90
33994;DHT22;20673;48.980;8.138;2023-07-30T01:32:48;18.50;99.90
33994;DHT22;20673;48.980;8.138;2023-07-30T01:35:20;18.50;99.90
33994;DHT22;20673;48.980;8.138;2023-07-30T01:37:50;18.50;99.90
33994;DHT22;20673;48.980;8.138;2023-07-30T01:40:17;18.50;99.90
33994;DHT22;20673;48.980;8.138;2023-07-30T01:42:44;18.40;99.90
33994;DHT22;20673;48.980;8.138;2023-07-30T01:45:10;18.40;99.90
33994;DHT22;20673;48.980;8.138;2023-07-30T01:47:36;18.40;99.90
33994;DHT22;20673;48.980;8.138;2023-07-30T01:50:02;18.40;99.90
33994;DHT22;20673;48.980;8.138;2023-07-30T01:52:29;18.30;99.90
33994;DHT22;20673;48.980;8.138;2023-07-30T01:54:55;18.30;99.90
33994;DHT22;20673;48.980;8.138;2023-07-30T01:57:21;18.30;99.90
33994;DHT22;20673;48.980;8.138;2023-07-30T01:59:48;18.20;99.90
33994;DHT22;20673;48.980;8.138;2023-07-30T02:02:14;18.20;99.90
33994;DHT22;20673;48.980;8.138;2023-07-30T02:04:40;18.30;99.90
33994;DHT22;20673;48.980;8.138;2023-07-30T02:07:06;18.20;99.90
33994;DHT22;20673;48.980;8.138;2023-07-30T02:09:32;18.10;99.90
33994;DHT22;20673;48.980;8.138;2023-07-30T02:11:58;18.10;99.90
33994;DHT22;20673;48.980;8.138;2023-07-30T02:14:25;18.10;99.90
33994;DHT22;20673;48.980;8.138;2023-07-30T02:16:51;18.10;99.90
33994;DHT22;20673;48.980;8.138;2023-07-30T02:19:17;18.10;99.90
33994;DHT22;20673;48.980;8.138;2023-07-30T02:21:43;18.00;99.90
33994;DHT22;20673;48.980;8.138;2023-07-30T02:24:09;18.00;99.90
33994;DHT22;20673;48.980;8.138;2023-07-30T02:26:38;18.00;99.90
33994;DHT22;20673;48.980;8.138;2023-07-30T02:29:04;18.00;99.90
33994;DHT22;20673;48.980;8.138;2023-07-30T02:31:31;18.10;99.90
33994;DHT22;20673;48.980;8.138;2023-07-30T02:33:57;18.20;99.90
33994;DHT22;20673;48.980;8.138;2023-07-30T02:36:24;18.10;99.90
33994;DHT22;20673;48.980;8.138;2023-07-30T02:38:50;18.20;99.90
33994;DHT22;20673;48.980;8.138;2023-07-30T02:41:17;18.20;99.90
33994;DHT22;20673;48.980;8.138;2023-07-30T02:43:43;18.20;99.90
33994;DHT22;20673;48.980;8.138;2023-07-30T02:46:09;18.20;99.90
33994;DHT22;20673;48.980;8.138;2023-07-30T02:48:35;18.20;99.90
33994;DHT22;20673;48.980;8.138;2023-07-30T02:51:01;18.20;99.90
33994;DHT22;20673;48.980;8.138;2023-07-30T02:53:28;18.20;99.90
33994;DHT22;20673;48.980;8.138;2023-07-30T02:55:55;18.30;99.90
33994;DHT22;20673;48.980;8.138;2023-07-30T02:58:21;18.30;99.90
33994;DHT22;20673;48.980;8.138;2023-07-30T03:00:47;18.30;99.90
33994;DHT22;20673;48.980;8.138;2023-07-30T03:03:13;18.40;99.90
33994;DHT22;20673;48.980;8.138;2023-07-30T03:05:44;18.40;99.90
33994;DHT22;20673;48.980;8.138;2023-07-30T03:08:10;18.30;99.90
33994;DHT22;20673;48.980;8.138;2023-07-30T03:10:36;18.40;99.90
33994;DHT22;20673;48.980;8.138;2023-07-30T03:13:02;18.30;99.90
33994;DHT22;20673;48.980;8.138;2023-07-30T03:15:29;18.30;99.90
33994;DHT22;20673;48.980;8.138;2023-07-30T03:17:55;18.30;99.90
33994;DHT22;20673;48.980;8.138;2023-07-30T03:20:21;18.30;99.90
33994;DHT22;20673;48.980;8.138;2023-07-30T03:22:47;18.30;99.90
33994;DHT22;20673;48.980;8.138;2023-07-30T03:25:13;18.30;99.90
33994;DHT22;20673;48.980;8.138;2023-07-30T03:27:39;18.30;99.90
33994;DHT22;20673;48.980;8.138;2023-07-30T03:30:06;18.30;99.90
33994;DHT22;20673;48.980;8.138;2023-07-30T03:32:32;18.30;99.90
33994;DHT22;20673;48.980;8.138;2023-07-30T03:34:58;18.30;99.90
33994;DHT22;20673;48.980;8.138;2023-07-30T03:37:24;18.40;99.90
33994;DHT22;20673;48.980;8.138;2023-07-30T03:39:50;18.40;99.90
33994;DHT22;20673;48.980;8.138;2023-07-30T03:42:16;18.50;99.90
33994;DHT22;20673;48.980;8.138;2023-07-30T03:44:42;18.50;99.90
33994;DHT22;20673;48.980;8.138;2023-07-30T03:47:09;18.40;99.90
33994;DHT22;20673;48.980;8.138;2023-07-30T03:49:35;18.40;99.90
33994;DHT22;20673;48.980;8.138;2023-07-30T03:52:01;18.50;99.90
33994;DHT22;20673;48.980;8.138;2023-07-30T03:54:27;18.50;99.90
33994;DHT22;20673;48.980;8.138;2023-07-30T03:56:53;18.50;99.90
33994;DHT22;20673;48.980;8.138;2023-07-30T03:59:19;18.40;99.90
33994;DHT22;20673;48.980;8.138;2023-07-30T04:01:45;18.40;99.90
33994;DHT22;20673;48.980;8.138;2023-07-30T04:04:12;18.40;99.90
33994;DHT22;20673;48.980;8.138;2023-07-30T04:06:38;18.30;99.90
33994;DHT22;20673;48.980;8.138;2023-07-30T04:09:04;18.30;99.90
33994;DHT22;20673;48.980;8.138;2023-07-30T04:11:30;18.20;99.90
33994;DHT22;20673;48.980;8.138;2023-07-30T04:13:57;18.30;99.90
33994;DHT22;20673;48.980;8.138;2023-07-30T04:16:23;18.20;99.90
33994;DHT22;20673;48.980;8.138;2023-07-30T04:18:49;18.20;99.90
33994;DHT22;20673;48.980;8.138;2023-07-30T04:21:15;18.10;99.90
33994;DHT22;20673;48.980;8.138;2023-07-30T04:23:41;18.20;99.90
33994;DHT22;20673;48.980;8.138;2023-07-30T04:26:07;18.20;99.90
33994;DHT22;20673;48.980;8.138;2023-07-30T04:28:33;18.20;99.90
33994;DHT22;20673;48.980;8.138;2023-07-30T04:30:59;18.30;99.90
33994;DHT22;20673;48.980;8.138;2023-07-30T04:33:25;18.20;99.90
33994;DHT22;20673;48.980;8.138;2023-07-30T04:35:52;18.30;99.90
33994;DHT22;20673;48.980;8.138;2023-07-30T04:38:18;18.30;99.90
33994;DHT22;20673;48.980;8.138;2023-07-30T04:40:44;18.20;99.90
33994;DHT22;20673;48.980;8.138;2023-07-30T04:43:10;18.20;99.90
33994;DHT22;20673;48.980;8.138;2023-07-30T04:45:36;18.30;99.90
33994;DHT22;20673;48.980;8.138;2023-07-30T04:48:03;18.30;99.90
33994;DHT22;20673;48.980;8.138;2023-07-30T04:50:29;18.30;99.90
33994;DHT22;20673;48.980;8.138;2023-07-30T04:52:55;18.30;99.90
33994;DHT22;20673;48.980;8.138;2023-07-30T04:55:21;18.40;99.90
33994;DHT22;20673;48.980;8.138;2023-07-30T04:57:47;18.40;99.90
33994;DHT22;20673;48.980;8.138;2023-07-30T05:00:14;18.40;99.90
33994;DHT22;20673;48.980;8.138;2023-07-30T05:02:40;18.50;99.90
33994;DHT22;20673;48.980;8.138;2023-07-30T05:05:06;18.50;99.90
33994;DHT22;20673;48.980;8.138;2023-07-30T05:07:32;18.50;99.90
33994;DHT22;20673;48.980;8.138;2023-07-30T05:09:59;18.50;99.90
33994;DHT22;20673;48.980;8.138;2023-07-30T05:12:25;18.60;99.90
33994;DHT22;20673;48.980;8.138;2023-07-30T05:14:52;18.60;99.90
33994;DHT22;20673;48.980;8.138;2023-07-30T05:17:18;18.60;99.90
33994;DHT22;20673;48.980;8.138;2023-07-30T05:19:44;18.60;99.90
33994;DHT22;20673;48.980;8.138;2023-07-30T05:22:10;18.60;99.90
33994;DHT22;20673;48.980;8.138;2023-07-30T05:24:36;18.70;99.90
33994;DHT22;20673;48.980;8.138;2023-07-30T05:27:02;18.70;99.90
33994;DHT22;20673;48.980;8.138;2023-07-30T05:29:29;18.80;99.90
33994;DHT22;20673;48.980;8.138;2023-07-30T05:31:55;19.00;99.90
33994;DHT22;20673;48.980;8.138;2023-07-30T05:34:21;19.10;99.90
33994;DHT22;20673;48.980;8.138;2023-07-30T05:36:48;19.30;99.90
33994;DHT22;20673;48.980;8.138;2023-07-30T05:39:14;19.30;99.90
33994;DHT22;20673;48.980;8.138;2023-07-30T05:41:40;19.30;99.90
33994;DHT22;20673;48.980;8.138;2023-07-30T05:44:06;19.40;99.90
33994;DHT22;20673;48.980;8.138;2023-07-30T05:46:32;19.40;99.90
33994;DHT22;20673;48.980;8.138;2023-07-30T05:48:58;19.40;99.90
33994;DHT22;20673;48.980;8.138;2023-07-30T05:51:24;19.40;99.90
33994;DHT22;20673;48.980;8.138;2023-07-30T05:53:50;19.40;99.90
33994;DHT22;20673;48.980;8.138;2023-07-30T05:56:16;19.40;99.90
33994;DHT22;20673;48.980;8.138;2023-07-30T05:58:44;19.30;99.90
33994;DHT22;20673;48.980;8.138;2023-07-30T06:01:10;19.30;99.90
33994;DHT22;20673;48.980;8.138;2023-07-30T06:03:39;19.30;99.90
33994;DHT22;20673;48.980;8.138;2023-07-30T06:06:05;19.20;99.90
33994;DHT22;20673;48.980;8.138;2023-07-30T06:08:31;19.20;99.90
33994;DHT22;20673;48.980;8.138;2023-07-30T06:11:02;19.10;99.90
33994;DHT22;20673;48.980;8.138;2023-07-30T06:13:29;19.10;99.90
33994;DHT22;20673;48.980;8.138;2023-07-30T06:15:55;19.00;99.90
33994;DHT22;20673;48.980;8.138;2023-07-30T06:18:21;18.90;99.90
33994;DHT22;20673;48.980;8.138;2023-07-30T06:20:48;18.90;99.90
33994;DHT22;20673;48.980;8.138;2023-07-30T06:23:14;18.90;99.90
33994;DHT22;20673;48.980;8.138;2023-07-30T06:25:40;18.90;99.90
33994;DHT22;20673;48.980;8.138;2023-07-30T06:28:06;18.90;99.90
33994;DHT22;20673;48.980;8.138;2023-07-30T06:30:32;19.00;99.90
33994;DHT22;20673;48.980;8.138;2023-07-30T06:32:58;19.00;99.90
33994;DHT22;20673;48.980;8.138;2023-07-30T06:35:24;19.00;99.90
33994;DHT22;20673;48.980;8.138;2023-07-30T06:37:51;19.00;99.90
33994;DHT22;20673;48.980;8.138;2023-07-30T06:40:17;19.00;99.90
33994;DHT22;20673;48.980;8.138;2023-07-30T06:42:43;19.00;99.90
33994;DHT22;20673;48.980;8.138;2023-07-30T06:45:09;19.00;99.90
33994;DHT22;20673;48.980;8.138;2023-07-30T06:47:35;19.00;99.90
33994;DHT22;20673;48.980;8.138;2023-07-30T06:50:02;19.00;99.90
33994;DHT22;20673;48.980;8.138;2023-07-30T06:52:29;19.00;99.90
33994;DHT22;20673;48.980;8.138;2023-07-30T06:54:55;19.10;99.90
33994;DHT22;20673;48.980;8.138;2023-07-30T06:57:22;19.10;99.90
33994;DHT22;20673;48.980;8.138;2023-07-30T06:59:48;19.10;99.90
33994;DHT22;20673;48.980;8.138;2023-07-30T07:02:14;19.20;99.90
33994;DHT22;20673;48.980;8.138;2023-07-30T07:04:40;19.30;99.90
33994;DHT22;20673;48.980;8.138;2023-07-30T07:07:06;19.40;99.90
33994;DHT22;20673;48.980;8.138;2023-07-30T07:09:32;19.50;99.90
33994;DHT22;20673;48.980;8.138;2023-07-30T07:11:58;19.60;99.90
33994;DHT22;20673;48.980;8.138;2023-07-30T07:14:25;19.70;99.90
33994;DHT22;20673;48.980;8.138;2023-07-30T07:16:53;19.70;99.90
33994;DHT22;20673;48.980;8.138;2023-07-30T07:19:21;19.90;99.90
33994;DHT22;20673;48.980;8.138;2023-07-30T07:21:48;20.00;99.90
33994;DHT22;20673;48.980;8.138;2023-07-30T07:24:17;20.20;99.90
33994;DHT22;20673;48.980;8.138;2023-07-30T07:26:44;20.40;99.90
33994;DHT22;20673;48.980;8.138;2023-07-30T07:29:10;20.40;99.90
33994;DHT22;20673;48.980;8.138;2023-07-30T07:31:36;20.40;99.90
33994;DHT22;20673;48.980;8.138;2023-07-30T07:34:05;20.40;99.90
33994;DHT22;20673;48.980;8.138;2023-07-30T07:36:37;20.40;99.90
33994;DHT22;20673;48.980;8.138;2023-07-30T07:39:08;20.40;99.90
33994;DHT22;20673;48.980;8.138;2023-07-30T07:41:35;20.50;99.90
33994;DHT22;20673;48.980;8.138;2023-07-30T07:44:03;20.70;99.90
33994;DHT22;20673;48.980;8.138;2023-07-30T07:46:29;20.70;99.90
33994;DHT22;20673;48.980;8.138;2023-07-30T07:48:56;20.70;99.90
33994;DHT22;20673;48.980;8.138;2023-07-30T07:51:22;20.70;99.90
33994;DHT22;20673;48.980;8.138;2023-07-30T07:53:48;20.60;99.90
33994;DHT22;20673;48.980;8.138;2023-07-30T07:56:14;20.60;99.90
33994;DHT22;20673;48.980;8.138;2023-07-30T07:58:40;20.60;99.90
33994;DHT22;20673;48.980;8.138;2023-07-30T08:01:08;20.80;99.90
33994;DHT22;20673;48.980;8.138;2023-07-30T08:03:34;21.10;99.90
33994;DHT22;20673;48.980;8.138;2023-07-30T08:06:00;21.10;99.90
33994;DHT22;20673;48.980;8.138;2023-07-30T08:08:27;21.10;99.90
33994;DHT22;20673;48.980;8.138;2023-07-30T08:10:54;21.00;99.90
33994;DHT22;20673;48.980;8.138;2023-07-30T08:13:20;21.00;99.90
33994;DHT22;20673;48.980;8.138;2023-07-30T08:15:46;21.00;99.90
33994;DHT22;20673;48.980;8.138;2023-07-30T08:18:12;21.10;99.90
33994;DHT22;20673;48.980;8.138;2023-07-30T08:20:38;21.10;99.90
33994;DHT22;20673;48.980;8.138;2023-07-30T08:23:04;21.10;99.90
33994;DHT22;20673;48.980;8.138;2023-07-30T08:25:30;21.20;99.90
33994;DHT22;20673;48.980;8.138;2023-07-30T08:27:56;21.10;99.90
33994;DHT22;20673;48.980;8.138;2023-07-30T08:30:22;21.00;99.90
33994;DHT22;20673;48.980;8.138;2023-07-30T08:32:48;20.90;99.90
33994;DHT22;20673;48.980;8.138;2023-07-30T08:35:15;20.90;99.90
33994;DHT22;20673;48.980;8.138;2023-07-30T08:37:41;20.90;99.90
33994;DHT22;20673;48.980;8.138;2023-07-30T08:40:08;21.10;99.90
33994;DHT22;20673;48.980;8.138;2023-07-30T08:42:36;21.20;99.90
33994;DHT22;20673;48.980;8.138;2023-07-30T08:45:04;21.10;99.90
33994;DHT22;20673;48.980;8.138;2023-07-30T08:47:34;21.10;99.90
33994;DHT22;20673;48.980;8.138;2023-07-30T08:50:02;21.20;99.90
33994;DHT22;20673;48.980;8.138;2023-07-30T08:52:29;21.60;99.90
33994;DHT22;20673;48.980;8.138;2023-07-30T08:54:57;21.70;99.90
33994;DHT22;20673;48.980;8.138;2023-07-30T08:57:28;21.80;99.90
33994;DHT22;20673;48.980;8.138;2023-07-30T09:00:12;21.80;99.90
33994;DHT22;20673;48.980;8.138;2023-07-30T09:02:52;21.90;99.90
33994;DHT22;20673;48.980;8.138;2023-07-30T09:05:20;21.80;99.90
33994;DHT22;20673;48.980;8.138;2023-07-30T09:07:48;21.90;99.90
33994;DHT22;20673;48.980;8.138;2023-07-30T09:10:15;22.10;99.90
33994;DHT22;20673;48.980;8.138;2023-07-30T09:12:42;22.30;99.90
33994;DHT22;20673;48.980;8.138;2023-07-30T09:15:09;22.40;99.90
33994;DHT22;20673;48.980;8.138;2023-07-30T09:17:36;22.30;99.90
33994;DHT22;20673;48.980;8.138;2023-07-30T09:20:03;22.20;99.90
33994;DHT22;20673;48.980;8.138;2023-07-30T09:22:32;22.20;99.90
33994;DHT22;20673;48.980;8.138;2023-07-30T09:25:02;22.00;99.90
33994;DHT22;20673;48.980;8.138;2023-07-30T09:27:29;21.80;99.90
33994;DHT22;20673;48.980;8.138;2023-07-30T09:29:59;21.80;99.90
33994;DHT22;20673;48.980;8.138;2023-07-30T09:32:36;21.90;99.90
33994;DHT22;20673;48.980;8.138;2023-07-30T09:35:09;21.80;99.90
33994;DHT22;20673;48.980;8.138;2023-07-30T09:37:43;21.80;99.90
33994;DHT22;20673;48.980;8.138;2023-07-30T09:40:13;22.00;99.90
33994;DHT22;20673;48.980;8.138;2023-07-30T09:42:46;22.00;99.90
33994;DHT22;20673;48.980;8.138;2023-07-30T09:45:24;21.90;99.90
33994;DHT22;20673;48.980;8.138;2023-07-30T09:47:52;21.80;99.90
33994;DHT22;20673;48.980;8.138;2023-07-30T09:50:19;21.50;99.90
33994;DHT22;20673;48.980;8.138;2023-07-30T09:52:46;21.40;99.90
33994;DHT22;20673;48.980;8.138;2023-07-30T09:55:12;21.40;99.90
33994;DHT22;20673;48.980;8.138;2023-07-30T09:57:38;21.30;99.90
33994;DHT22;20673;48.980;8.138;2023-07-30T10:00:06;21.20;99.90
33994;DHT22;20673;48.980;8.138;2023-07-30T10:02:38;21.10;99.90
33994;DHT22;20673;48.980;8.138;2023-07-30T10:05:10;21.00;99.90
33994;DHT22;20673;48.980;8.138;2023-07-30T10:07:42;21.00;99.90
33994;DHT22;20673;48.980;8.138;2023-07-30T10:10:29;21.10;99.90
33994;DHT22;20673;48.980;8.138;2023-07-30T10:13:00;21.30;99.90
33994;DHT22;20673;48.980;8.138;2023-07-30T10:15:29;21.50;99.90
33994;DHT22;20673;48.980;8.138;2023-07-30T10:18:02;22.20;99.90
33994;DHT22;20673;48.980;8.138;2023-07-30T10:20:30;22.30;99.90
33994;DHT22;20673;48.980;8.138;2023-07-30T10:22:58;22.30;99.90
33994;DHT22;20673;48.980;8.138;2023-07-30T10:25:46;22.30;99.90
33994;DHT22;20673;48.980;8.138;2023-07-30T10:31:08;23.00;99.90
33994;DHT22;20673;48.980;8.138;2023-07-30T10:33:45;23.30;99.90
33994;DHT22;20673;48.980;8.138;2023-07-30T10:36:31;23.50;99.90
33994;DHT22;20673;48.980;8.138;2023-07-30T10:41:53;24.00;99.90
33994;DHT22;20673;48.980;8.138;2023-07-30T10:44:34;24.10;99.90
33994;DHT22;20673;48.980;8.138;2023-07-30T10:47:02;24.10;99.90
33994;DHT22;20673;48.980;8.138;2023-07-30T10:49:36;24.00;99.90
33994;DHT22;20673;48.980;8.138;2023-07-30T10:52:04;23.90;99.90
33994;DHT22;20673;48.980;8.138;2023-07-30T10:54:34;23.70;99.90
33994;DHT22;20673;48.980;8.138;2023-07-30T10:57:01;23.60;99.90
33994;DHT22;20673;48.980;8.138;2023-07-30T10:59:39;23.70;99.90
33994;DHT22;20673;48.980;8.138;2023-07-30T11:02:08;23.80;99.90
33994;DHT22;20673;48.980;8.138;2023-07-30T11:04:35;23.90;99.90
33994;DHT22;20673;48.980;8.138;2023-07-30T11:07:01;23.70;99.90
33994;DHT22;20673;48.980;8.138;2023-07-30T11:09:29;23.70;99.90
33994;DHT22;20673;48.980;8.138;2023-07-30T11:11:56;23.70;99.90
33994;DHT22;20673;48.980;8.138;2023-07-30T11:14:25;23.70;99.90
33994;DHT22;20673;48.980;8.138;2023-07-30T11:16:55;23.50;99.90
33994;DHT22;20673;48.980;8.138;2023-07-30T11:19:29;23.80;99.90
33994;DHT22;20673;48.980;8.138;2023-07-30T11:21:57;24.00;99.90
33994;DHT22;20673;48.980;8.138;2023-07-30T11:24:36;23.90;99.90
33994;DHT22;20673;48.980;8.138;2023-07-30T11:27:05;24.30;99.90
33994;DHT22;20673;48.980;8.138;2023-07-30T11:29:32;24.20;99.90
33994;DHT22;20673;48.980;8.138;2023-07-30T11:31:59;23.90;99.90
33994;DHT22;20673;48.980;8.138;2023-07-30T11:34:27;23.90;99.90
33994;DHT22;20673;48.980;8.138;2023-07-30T11:36:55;23.80;99.90
33994;DHT22;20673;48.980;8.138;2023-07-30T11:39:23;24.00;99.90
33994;DHT22;20673;48.980;8.138;2023-07-30T11:41:50;24.50;99.90
33994;DHT22;20673;48.980;8.138;2023-07-30T11:44:36;24.20;99.90
33994;DHT22;20673;48.980;8.138;2023-07-30T11:47:07;23.90;99.90
33994;DHT22;20673;48.980;8.138;2023-07-30T11:49:34;24.30;99.90
33994;DHT22;20673;48.980;8.138;2023-07-30T11:52:08;24.40;99.90
33994;DHT22;20673;48.980;8.138;2023-07-30T11:54:37;24.50;99.90
33994;DHT22;20673;48.980;8.138;2023-07-30T11:57:09;24.10;99.90
33994;DHT22;20673;48.980;8.138;2023-07-30T11:59:39;23.70;99.90
33994;DHT22;20673;48.980;8.138;2023-07-30T12:02:16;23.60;99.90
33994;DHT22;20673;48.980;8.138;2023-07-30T12:04:46;23.60;99.90
33994;DHT22;20673;48.980;8.138;2023-07-30T12:07:24;23.70;99.90
33994;DHT22;20673;48.980;8.138;2023-07-30T12:09:54;23.50;99.90
33994;DHT22;20673;48.980;8.138;2023-07-30T12:12:25;23.50;99.90
33994;DHT22;20673;48.980;8.138;2023-07-30T12:14:53;23.20;99.90
33994;DHT22;20673;48.980;8.138;2023-07-30T12:17:21;23.50;99.90
33994;DHT22;20673;48.980;8.138;2023-07-30T12:19:48;23.40;99.90
33994;DHT22;20673;48.980;8.138;2023-07-30T12:22:14;23.50;99.90
33994;DHT22;20673;48.980;8.138;2023-07-30T12:24:41;23.50;99.90
33994;DHT22;20673;48.980;8.138;2023-07-30T12:27:08;23.50;99.90
33994;DHT22;20673;48.980;8.138;2023-07-30T12:29:34;23.80;99.90
33994;DHT22;20673;48.980;8.138;2023-07-30T12:32:00;24.20;99.90
33994;DHT22;20673;48.980;8.138;2023-07-30T12:34:27;24.40;99.90
33994;DHT22;20673;48.980;8.138;2023-07-30T12:36:53;24.30;99.90
33994;DHT22;20673;48.980;8.138;2023-07-30T12:39:21;24.40;99.90
33994;DHT22;20673;48.980;8.138;2023-07-30T12:41:48;24.70;99.90
33994;DHT22;20673;48.980;8.138;2023-07-30T12:44:14;25.30;99.90
33994;DHT22;20673;48.980;8.138;2023-07-30T12:46:40;25.00;99.90
33994;DHT22;20673;48.980;8.138;2023-07-30T12:49:09;24.80;99.90
33994;DHT22;20673;48.980;8.138;2023-07-30T12:51:38;24.70;99.90
33994;DHT22;20673;48.980;8.138;2023-07-30T12:54:06;24.70;99.90
33994;DHT22;20673;48.980;8.138;2023-07-30T12:56:36;24.40;99.90
33994;DHT22;20673;48.980;8.138;2023-07-30T12:59:02;24.30;99.90
33994;DHT22;20673;48.980;8.138;2023-07-30T13:01:29;23.90;99.90
33994;DHT22;20673;48.980;8.138;2023-07-30T13:03:55;24.20;99.90
33994;DHT22;20673;48.980;8.138;2023-07-30T13:06:21;24.50;99.90
33994;DHT22;20673;48.980;8.138;2023-07-30T13:08:47;24.60;99.90
33994;DHT22;20673;48.980;8.138;2023-07-30T13:11:14;25.00;99.90
33994;DHT22;20673;48.980;8.138;2023-07-30T13:13:40;25.10;99.90
33994;DHT22;20673;48.980;8.138;2023-07-30T13:16:06;25.10;99.90
33994;DHT22;20673;48.980;8.138;2023-07-30T13:18:32;25.30;99.90
33994;DHT22;20673;48.980;8.138;2023-07-30T13:20:58;25.20;99.90
33994;DHT22;20673;48.980;8.138;2023-07-30T13:23:25;24.80;99.90
33994;DHT22;20673;48.980;8.138;2023-07-30T13:25:51;24.10;99.90
33994;DHT22;20673;48.980;8.138;2023-07-30T13:28:17;24.10;99.90
33994;DHT22;20673;48.980;8.138;2023-07-30T13:30:43;24.40;99.90
33994;DHT22;20673;48.980;8.138;2023-07-30T13:33:09;24.60;99.90
33994;DHT22;20673;48.980;8.138;2023-07-30T13:35:35;25.20;99.90
33994;DHT22;20673;48.980;8.138;2023-07-30T13:38:02;25.40;99.90
33994;DHT22;20673;48.980;8.138;2023-07-30T13:40:28;25.50;99.90
33994;DHT22;20673;48.980;8.138;2023-07-30T13:42:54;25.40;99.90
33994;DHT22;20673;48.980;8.138;2023-07-30T13:45:20;25.00;99.90
33994;DHT22;20673;48.980;8.138;2023-07-30T13:47:46;25.10;99.90
33994;DHT22;20673;48.980;8.138;2023-07-30T13:50:12;25.30;99.90
33994;DHT22;20673;48.980;8.138;2023-07-30T13:52:39;25.10;99.90
33994;DHT22;20673;48.980;8.138;2023-07-30T13:55:05;25.50;99.90
33994;DHT22;20673;48.980;8.138;2023-07-30T13:57:32;25.60;99.90
33994;DHT22;20673;48.980;8.138;2023-07-30T14:00:00;25.70;98.70
33994;DHT22;20673;48.980;8.138;2023-07-30T14:02:29;25.70;97.60
33994;DHT22;20673;48.980;8.138;2023-07-30T14:04:56;25.60;98.50
33994;DHT22;20673;48.980;8.138;2023-07-30T14:07:22;25.10;98.60
33994;DHT22;20673;48.980;8.138;2023-07-30T14:09:48;25.30;98.70
33994;DHT22;20673;48.980;8.138;2023-07-30T14:12:14;25.10;99.30
33994;DHT22;20673;48.980;8.138;2023-07-30T14:14:40;25.30;98.50
33994;DHT22;20673;48.980;8.138;2023-07-30T14:17:06;24.70;98.30
33994;DHT22;20673;48.980;8.138;2023-07-30T14:19:32;24.50;98.70
33994;DHT22;20673;48.980;8.138;2023-07-30T14:21:59;24.50;98.90
33994;DHT22;20673;48.980;8.138;2023-07-30T14:24:27;24.50;99.80
33994;DHT22;20673;48.980;8.138;2023-07-30T14:26:53;24.40;98.60
33994;DHT22;20673;48.980;8.138;2023-07-30T14:29:19;24.20;99.30
33994;DHT22;20673;48.980;8.138;2023-07-30T14:31:45;23.90;98.00
33994;DHT22;20673;48.980;8.138;2023-07-30T14:34:12;23.70;98.40
33994;DHT22;20673;48.980;8.138;2023-07-30T14:36:38;23.70;98.80
33994;DHT22;20673;48.980;8.138;2023-07-30T14:39:04;23.90;99.60
33994;DHT22;20673;48.980;8.138;2023-07-30T14:41:30;24.40;99.00
33994;DHT22;20673;48.980;8.138;2023-07-30T14:43:56;25.00;98.90
33994;DHT22;20673;48.980;8.138;2023-07-30T14:46:22;25.10;97.90
33994;DHT22;20673;48.980;8.138;2023-07-30T14:48:49;24.90;97.40
33994;DHT22;20673;48.980;8.138;2023-07-30T14:51:15;24.40;98.30
33994;DHT22;20673;48.980;8.138;2023-07-30T14:53:42;24.10;98.90
33994;DHT22;20673;48.980;8.138;2023-07-30T14:56:08;23.80;98.70
33994;DHT22;20673;48.980;8.138;2023-07-30T14:58:35;23.70;98.90
33994;DHT22;20673;48.980;8.138;2023-07-30T15:01:01;24.30;99.40
33994;DHT22;20673;48.980;8.138;2023-07-30T15:03:27;24.70;99.00
33994;DHT22;20673;48.980;8.138;2023-07-30T15:05:53;25.50;98.60
33994;DHT22;20673;48.980;8.138;2023-07-30T15:08:20;25.90;96.20
33994;DHT22;20673;48.980;8.138;2023-07-30T15:10:47;25.90;96.30
33994;DHT22;20673;48.980;8.138;2023-07-30T15:13:13;25.60;95.30
33994;DHT22;20673;48.980;8.138;2023-07-30T15:15:39;25.50;95.30
33994;DHT22;20673;48.980;8.138;2023-07-30T15:18:05;25.70;97.70
33994;DHT22;20673;48.980;8.138;2023-07-30T15:20:34;25.80;95.00
33994;DHT22;20673;48.980;8.138;2023-07-30T15:23:00;25.50;94.00
33994;DHT22;20673;48.980;8.138;2023-07-30T15:25:26;25.10;94.00
33994;DHT22;20673;48.980;8.138;2023-07-30T15:27:52;24.60;95.50
33994;DHT22;20673;48.980;8.138;2023-07-30T15:30:19;24.70;95.70
33994;DHT22;20673;48.980;8.138;2023-07-30T15:32:45;24.90;96.20
33994;DHT22;20673;48.980;8.138;2023-07-30T15:35:12;25.00;95.90
33994;DHT22;20673;48.980;8.138;2023-07-30T15:37:39;25.20;96.10